sensor_id;sensor_type;location;lat;lon;timestamp;P1;durP1;ratioP1;P2;durP2;ratioP2
36691;SDS011;22678;52.052;4.242;2022-10-17T00:01:09;4.43;;;1.00;;
36691;SDS011;22678;52.052;4.242;2022-10-17T00:03:35;8.30;;;1.95;;
36691;SDS011;22678;52.052;4.242;2022-10-17T00:06:05;3.00;;;1.20;;
36691;SDS011;22678;52.052;4.242;2022-10-17T00:08:33;3.75;;;1.45;;
36691;SDS011;22678;52.052;4.242;2022-10-17T00:11:00;3.35;;;1.45;;
36691;SDS011;22678;52.052;4.242;2022-10-17T00:13:28;3.17;;;1.40;;
36691;SDS011;22678;52.052;4.242;2022-10-17T00:15:54;3.80;;;1.42;;
36691;SDS011;22678;52.052;4.242;2022-10-17T00:18:19;3.78;;;1.60;;
36691;SDS011;22678;52.052;4.242;2022-10-17T00:20:45;5.40;;;1.50;;
36691;SDS011;22678;52.052;4.242;2022-10-17T00:23:10;4.00;;;1.20;;
36691;SDS011;22678;52.052;4.242;2022-10-17T00:25:35;4.15;;;2.22;;
36691;SDS011;22678;52.052;4.242;2022-10-17T00:28:01;4.15;;;1.50;;
36691;SDS011;22678;52.052;4.242;2022-10-17T00:30:27;5.05;;;2.47;;
36691;SDS011;22678;52.052;4.242;2022-10-17T00:32:53;4.43;;;1.77;;
36691;SDS011;22678;52.052;4.242;2022-10-17T00:35:18;4.35;;;1.60;;
36691;SDS011;22678;52.052;4.242;2022-10-17T00:37:43;4.05;;;1.83;;
36691;SDS011;22678;52.052;4.242;2022-10-17T00:40:09;5.75;;;2.90;;
36691;SDS011;22678;52.052;4.242;2022-10-17T00:42:35;6.22;;;2.67;;
36691;SDS011;22678;52.052;4.242;2022-10-17T00:45:12;5.55;;;2.25;;
36691;SDS011;22678;52.052;4.242;2022-10-17T00:47:57;4.35;;;2.03;;
36691;SDS011;22678;52.052;4.242;2022-10-17T00:50:27;4.88;;;2.35;;
36691;SDS011;22678;52.052;4.242;2022-10-17T00:52:53;5.28;;;2.47;;
36691;SDS011;22678;52.052;4.242;2022-10-17T00:55:26;5.97;;;2.50;;
36691;SDS011;22678;52.052;4.242;2022-10-17T00:57:54;7.43;;;1.95;;
36691;SDS011;22678;52.052;4.242;2022-10-17T01:00:21;7.57;;;2.53;;
36691;SDS011;22678;52.052;4.242;2022-10-17T01:02:47;7.22;;;2.25;;
36691;SDS011;22678;52.052;4.242;2022-10-17T01:05:13;7.50;;;2.97;;
36691;SDS011;22678;52.052;4.242;2022-10-17T01:07:40;12.68;;;4.60;;
36691;SDS011;22678;52.052;4.242;2022-10-17T01:10:07;7.03;;;2.85;;
36691;SDS011;22678;52.052;4.242;2022-10-17T01:12:43;6.07;;;2.97;;
36691;SDS011;22678;52.052;4.242;2022-10-17T01:18:31;9.05;;;2.78;;
36691;SDS011;22678;52.052;4.242;2022-10-17T01:31:46;7.97;;;3.50;;
36691;SDS011;22678;52.052;4.242;2022-10-17T01:34:21;6.50;;;3.70;;
36691;SDS011;22678;52.052;4.242;2022-10-17T01:37:29;5.90;;;3.30;;
36691;SDS011;22678;52.052;4.242;2022-10-17T01:42:41;8.88;;;4.13;;
36691;SDS011;22678;52.052;4.242;2022-10-17T01:48:08;6.45;;;3.70;;
36691;SDS011;22678;52.052;4.242;2022-10-17T01:50:40;6.43;;;4.07;;
36691;SDS011;22678;52.052;4.242;2022-10-17T01:53:24;7.70;;;3.65;;
36691;SDS011;22678;52.052;4.242;2022-10-17T01:55:53;7.45;;;3.83;;
36691;SDS011;22678;52.052;4.242;2022-10-17T01:58:30;6.15;;;3.83;;
36691;SDS011;22678;52.052;4.242;2022-10-17T02:00:59;9.07;;;5.93;;
36691;SDS011;22678;52.052;4.242;2022-10-17T02:03:27;7.95;;;4.18;;
36691;SDS011;22678;52.052;4.242;2022-10-17T02:05:53;6.57;;;4.60;;
36691;SDS011;22678;52.052;4.242;2022-10-17T02:08:30;10.60;;;5.05;;
36691;SDS011;22678;52.052;4.242;2022-10-17T02:11:11;18.67;;;5.03;;
36691;SDS011;22678;52.052;4.242;2022-10-17T02:16:42;13.18;;;5.85;;
36691;SDS011;22678;52.052;4.242;2022-10-17T02:22:44;10.65;;;5.13;;
36691;SDS011;22678;52.052;4.242;2022-10-17T02:25:17;9.00;;;5.40;;
36691;SDS011;22678;52.052;4.242;2022-10-17T02:27:55;8.02;;;5.45;;
36691;SDS011;22678;52.052;4.242;2022-10-17T02:33:21;6.65;;;4.32;;
36691;SDS011;22678;52.052;4.242;2022-10-17T02:35:52;9.35;;;4.75;;
36691;SDS011;22678;52.052;4.242;2022-10-17T02:38:21;8.45;;;4.70;;
36691;SDS011;22678;52.052;4.242;2022-10-17T02:40:48;9.95;;;5.22;;
36691;SDS011;22678;52.052;4.242;2022-10-17T02:43:15;8.02;;;5.05;;
36691;SDS011;22678;52.052;4.242;2022-10-17T02:45:41;8.95;;;4.57;;
36691;SDS011;22678;52.052;4.242;2022-10-17T02:50:41;9.77;;;6.07;;
36691;SDS011;22678;52.052;4.242;2022-10-17T02:53:16;12.70;;;5.03;;
36691;SDS011;22678;52.052;4.242;2022-10-17T02:55:52;9.77;;;4.55;;
36691;SDS011;22678;52.052;4.242;2022-10-17T02:58:22;11.10;;;5.30;;
36691;SDS011;22678;52.052;4.242;2022-10-17T03:00:53;9.48;;;5.50;;
36691;SDS011;22678;52.052;4.242;2022-10-17T03:03:23;10.88;;;5.80;;
36691;SDS011;22678;52.052;4.242;2022-10-17T03:05:50;9.02;;;5.47;;
36691;SDS011;22678;52.052;4.242;2022-10-17T03:08:16;12.88;;;5.05;;
36691;SDS011;22678;52.052;4.242;2022-10-17T03:10:42;12.68;;;5.45;;
36691;SDS011;22678;52.052;4.242;2022-10-17T03:13:07;8.70;;;5.53;;
36691;SDS011;22678;52.052;4.242;2022-10-17T03:15:32;11.85;;;5.90;;
36691;SDS011;22678;52.052;4.242;2022-10-17T03:17:58;7.90;;;4.50;;
36691;SDS011;22678;52.052;4.242;2022-10-17T03:20:23;9.23;;;5.05;;
36691;SDS011;22678;52.052;4.242;2022-10-17T03:22:48;12.30;;;5.75;;
36691;SDS011;22678;52.052;4.242;2022-10-17T03:25:13;11.88;;;6.18;;
36691;SDS011;22678;52.052;4.242;2022-10-17T03:27:39;8.95;;;5.57;;
36691;SDS011;22678;52.052;4.242;2022-10-17T03:30:04;14.73;;;5.18;;
36691;SDS011;22678;52.052;4.242;2022-10-17T03:32:31;10.68;;;5.78;;
36691;SDS011;22678;52.052;4.242;2022-10-17T03:34:57;11.77;;;6.32;;
36691;SDS011;22678;52.052;4.242;2022-10-17T03:37:22;14.40;;;7.40;;
36691;SDS011;22678;52.052;4.242;2022-10-17T03:39:48;8.50;;;5.25;;
36691;SDS011;22678;52.052;4.242;2022-10-17T03:42:13;14.18;;;6.40;;
36691;SDS011;22678;52.052;4.242;2022-10-17T03:44:38;9.43;;;5.90;;
36691;SDS011;22678;52.052;4.242;2022-10-17T03:47:03;7.35;;;4.85;;
36691;SDS011;22678;52.052;4.242;2022-10-17T03:49:29;10.80;;;5.78;;
36691;SDS011;22678;52.052;4.242;2022-10-17T03:51:54;13.05;;;5.75;;
36691;SDS011;22678;52.052;4.242;2022-10-17T03:54:20;14.55;;;6.63;;
36691;SDS011;22678;52.052;4.242;2022-10-17T03:56:45;11.70;;;6.15;;
36691;SDS011;22678;52.052;4.242;2022-10-17T03:59:14;10.07;;;5.85;;
36691;SDS011;22678;52.052;4.242;2022-10-17T04:01:40;7.90;;;5.53;;
36691;SDS011;22678;52.052;4.242;2022-10-17T04:04:05;9.25;;;6.00;;
36691;SDS011;22678;52.052;4.242;2022-10-17T04:06:31;11.07;;;5.30;;
36691;SDS011;22678;52.052;4.242;2022-10-17T04:08:56;11.18;;;5.35;;
36691;SDS011;22678;52.052;4.242;2022-10-17T04:11:21;9.80;;;5.70;;
36691;SDS011;22678;52.052;4.242;2022-10-17T04:13:47;8.65;;;5.15;;
36691;SDS011;22678;52.052;4.242;2022-10-17T04:16:17;8.88;;;5.25;;
36691;SDS011;22678;52.052;4.242;2022-10-17T04:18:43;10.77;;;5.25;;
36691;SDS011;22678;52.052;4.242;2022-10-17T04:21:08;10.40;;;5.10;;
36691;SDS011;22678;52.052;4.242;2022-10-17T04:23:34;11.65;;;5.40;;
36691;SDS011;22678;52.052;4.242;2022-10-17T04:26:00;14.73;;;7.85;;
36691;SDS011;22678;52.052;4.242;2022-10-17T04:28:27;8.50;;;5.75;;
36691;SDS011;22678;52.052;4.242;2022-10-17T04:30:59;8.27;;;4.70;;
36691;SDS011;22678;52.052;4.242;2022-10-17T04:33:30;10.95;;;4.20;;
36691;SDS011;22678;52.052;4.242;2022-10-17T04:35:57;12.32;;;5.35;;
36691;SDS011;22678;52.052;4.242;2022-10-17T04:38:23;8.15;;;4.00;;
36691;SDS011;22678;52.052;4.242;2022-10-17T04:40:48;8.75;;;4.80;;
36691;SDS011;22678;52.052;4.242;2022-10-17T04:43:14;9.43;;;4.63;;
36691;SDS011;22678;52.052;4.242;2022-10-17T04:45:39;8.27;;;4.22;;
36691;SDS011;22678;52.052;4.242;2022-10-17T04:48:05;11.95;;;5.15;;
36691;SDS011;22678;52.052;4.242;2022-10-17T04:50:30;12.40;;;4.90;;
36691;SDS011;22678;52.052;4.242;2022-10-17T04:52:55;13.13;;;5.95;;
36691;SDS011;22678;52.052;4.242;2022-10-17T04:55:21;21.27;;;7.45;;
36691;SDS011;22678;52.052;4.242;2022-10-17T04:57:46;8.18;;;4.28;;
36691;SDS011;22678;52.052;4.242;2022-10-17T05:00:11;8.70;;;5.25;;
36691;SDS011;22678;52.052;4.242;2022-10-17T05:02:37;9.45;;;4.95;;
36691;SDS011;22678;52.052;4.242;2022-10-17T05:05:02;12.50;;;6.20;;
36691;SDS011;22678;52.052;4.242;2022-10-17T05:07:28;9.98;;;6.22;;
36691;SDS011;22678;52.052;4.242;2022-10-17T05:09:53;8.85;;;4.72;;
36691;SDS011;22678;52.052;4.242;2022-10-17T05:12:18;9.10;;;4.60;;
36691;SDS011;22678;52.052;4.242;2022-10-17T05:14:43;6.90;;;4.47;;
36691;SDS011;22678;52.052;4.242;2022-10-17T05:17:09;10.80;;;4.88;;
36691;SDS011;22678;52.052;4.242;2022-10-17T05:19:34;8.15;;;5.32;;
36691;SDS011;22678;52.052;4.242;2022-10-17T05:21:59;9.60;;;5.70;;
36691;SDS011;22678;52.052;4.242;2022-10-17T05:24:24;10.98;;;4.85;;
36691;SDS011;22678;52.052;4.242;2022-10-17T05:26:50;8.57;;;4.53;;
36691;SDS011;22678;52.052;4.242;2022-10-17T05:29:16;10.15;;;6.47;;
36691;SDS011;22678;52.052;4.242;2022-10-17T05:31:41;9.88;;;4.80;;
36691;SDS011;22678;52.052;4.242;2022-10-17T05:34:06;9.13;;;4.90;;
36691;SDS011;22678;52.052;4.242;2022-10-17T05:36:32;12.40;;;4.78;;
36691;SDS011;22678;52.052;4.242;2022-10-17T05:38:57;13.90;;;6.80;;
36691;SDS011;22678;52.052;4.242;2022-10-17T05:41:22;9.77;;;4.63;;
36691;SDS011;22678;52.052;4.242;2022-10-17T05:43:48;11.07;;;6.35;;
36691;SDS011;22678;52.052;4.242;2022-10-17T05:46:14;8.73;;;4.55;;
36691;SDS011;22678;52.052;4.242;2022-10-17T05:48:39;11.35;;;4.97;;
36691;SDS011;22678;52.052;4.242;2022-10-17T05:51:06;8.68;;;5.20;;
36691;SDS011;22678;52.052;4.242;2022-10-17T05:53:33;10.05;;;5.47;;
36691;SDS011;22678;52.052;4.242;2022-10-17T05:56:00;14.80;;;6.68;;
36691;SDS011;22678;52.052;4.242;2022-10-17T05:58:28;13.50;;;6.55;;
36691;SDS011;22678;52.052;4.242;2022-10-17T06:00:57;10.55;;;4.78;;
36691;SDS011;22678;52.052;4.242;2022-10-17T06:03:24;8.30;;;4.80;;
36691;SDS011;22678;52.052;4.242;2022-10-17T06:05:49;7.90;;;5.03;;
36691;SDS011;22678;52.052;4.242;2022-10-17T06:08:15;15.48;;;7.53;;
36691;SDS011;22678;52.052;4.242;2022-10-17T06:10:41;10.88;;;4.75;;
36691;SDS011;22678;52.052;4.242;2022-10-17T06:13:06;8.75;;;4.65;;
36691;SDS011;22678;52.052;4.242;2022-10-17T06:15:31;12.63;;;5.20;;
36691;SDS011;22678;52.052;4.242;2022-10-17T06:17:56;9.75;;;5.28;;
36691;SDS011;22678;52.052;4.242;2022-10-17T06:20:22;9.75;;;4.07;;
36691;SDS011;22678;52.052;4.242;2022-10-17T06:22:47;10.90;;;4.80;;
36691;SDS011;22678;52.052;4.242;2022-10-17T06:25:12;8.23;;;4.72;;
36691;SDS011;22678;52.052;4.242;2022-10-17T06:27:38;9.65;;;4.88;;
36691;SDS011;22678;52.052;4.242;2022-10-17T06:30:04;8.52;;;4.45;;
36691;SDS011;22678;52.052;4.242;2022-10-17T06:32:29;7.78;;;4.05;;
36691;SDS011;22678;52.052;4.242;2022-10-17T06:34:55;8.75;;;4.75;;
36691;SDS011;22678;52.052;4.242;2022-10-17T06:37:20;9.02;;;5.18;;
36691;SDS011;22678;52.052;4.242;2022-10-17T06:39:45;9.48;;;6.68;;
36691;SDS011;22678;52.052;4.242;2022-10-17T06:42:11;12.00;;;5.10;;
36691;SDS011;22678;52.052;4.242;2022-10-17T06:44:36;19.65;;;9.63;;
36691;SDS011;22678;52.052;4.242;2022-10-17T06:47:02;12.13;;;6.85;;
36691;SDS011;22678;52.052;4.242;2022-10-17T06:49:27;13.43;;;6.55;;
36691;SDS011;22678;52.052;4.242;2022-10-17T06:51:53;9.38;;;5.63;;
36691;SDS011;22678;52.052;4.242;2022-10-17T06:54:18;11.85;;;5.43;;
36691;SDS011;22678;52.052;4.242;2022-10-17T06:56:44;12.15;;;6.45;;
36691;SDS011;22678;52.052;4.242;2022-10-17T06:59:09;9.05;;;5.65;;
36691;SDS011;22678;52.052;4.242;2022-10-17T07:01:34;10.30;;;6.35;;
36691;SDS011;22678;52.052;4.242;2022-10-17T07:04:00;11.25;;;6.20;;
36691;SDS011;22678;52.052;4.242;2022-10-17T07:06:25;8.82;;;5.40;;
36691;SDS011;22678;52.052;4.242;2022-10-17T07:08:51;9.40;;;5.32;;
36691;SDS011;22678;52.052;4.242;2022-10-17T07:11:17;14.15;;;5.95;;
36691;SDS011;22678;52.052;4.242;2022-10-17T07:13:44;13.15;;;6.60;;
36691;SDS011;22678;52.052;4.242;2022-10-17T07:16:10;10.43;;;5.60;;
36691;SDS011;22678;52.052;4.242;2022-10-17T07:18:35;9.10;;;5.45;;
36691;SDS011;22678;52.052;4.242;2022-10-17T07:21:01;15.43;;;6.43;;
36691;SDS011;22678;52.052;4.242;2022-10-17T07:23:28;11.80;;;4.95;;
36691;SDS011;22678;52.052;4.242;2022-10-17T07:25:58;11.15;;;5.38;;
36691;SDS011;22678;52.052;4.242;2022-10-17T07:28:27;9.23;;;5.85;;
36691;SDS011;22678;52.052;4.242;2022-10-17T07:30:53;13.02;;;5.65;;
36691;SDS011;22678;52.052;4.242;2022-10-17T07:33:18;11.88;;;5.32;;
36691;SDS011;22678;52.052;4.242;2022-10-17T07:35:43;7.88;;;5.13;;
36691;SDS011;22678;52.052;4.242;2022-10-17T07:38:09;11.70;;;5.35;;
36691;SDS011;22678;52.052;4.242;2022-10-17T07:40:34;19.00;;;5.38;;
36691;SDS011;22678;52.052;4.242;2022-10-17T07:42:59;18.70;;;6.28;;
36691;SDS011;22678;52.052;4.242;2022-10-17T07:45:25;13.93;;;6.88;;
36691;SDS011;22678;52.052;4.242;2022-10-17T07:47:54;10.90;;;6.15;;
36691;SDS011;22678;52.052;4.242;2022-10-17T07:50:20;9.68;;;5.63;;
36691;SDS011;22678;52.052;4.242;2022-10-17T07:52:45;9.55;;;5.38;;
36691;SDS011;22678;52.052;4.242;2022-10-17T07:55:11;8.43;;;5.25;;
36691;SDS011;22678;52.052;4.242;2022-10-17T07:57:36;16.48;;;5.72;;
36691;SDS011;22678;52.052;4.242;2022-10-17T08:00:01;14.38;;;7.43;;
36691;SDS011;22678;52.052;4.242;2022-10-17T08:02:27;11.48;;;5.05;;
36691;SDS011;22678;52.052;4.242;2022-10-17T08:04:52;10.65;;;4.78;;
36691;SDS011;22678;52.052;4.242;2022-10-17T08:07:18;17.23;;;5.80;;
36691;SDS011;22678;52.052;4.242;2022-10-17T08:09:44;11.38;;;5.40;;
36691;SDS011;22678;52.052;4.242;2022-10-17T08:12:10;9.88;;;4.57;;
36691;SDS011;22678;52.052;4.242;2022-10-17T08:14:38;10.25;;;4.15;;
36691;SDS011;22678;52.052;4.242;2022-10-17T08:17:04;11.55;;;5.13;;
36691;SDS011;22678;52.052;4.242;2022-10-17T08:19:29;14.63;;;4.90;;
36691;SDS011;22678;52.052;4.242;2022-10-17T08:21:54;11.82;;;4.57;;
36691;SDS011;22678;52.052;4.242;2022-10-17T08:24:20;8.90;;;4.43;;
36691;SDS011;22678;52.052;4.242;2022-10-17T08:26:45;11.30;;;5.13;;
36691;SDS011;22678;52.052;4.242;2022-10-17T08:29:13;9.02;;;3.83;;
36691;SDS011;22678;52.052;4.242;2022-10-17T08:31:40;7.70;;;4.07;;
36691;SDS011;22678;52.052;4.242;2022-10-17T08:34:05;7.35;;;4.38;;
36691;SDS011;22678;52.052;4.242;2022-10-17T08:36:31;12.95;;;3.88;;
36691;SDS011;22678;52.052;4.242;2022-10-17T08:38:56;8.43;;;3.17;;
36691;SDS011;22678;52.052;4.242;2022-10-17T08:47:03;14.07;;;6.20;;
36691;SDS011;22678;52.052;4.242;2022-10-17T08:55:25;6.35;;;3.70;;
36691;SDS011;22678;52.052;4.242;2022-10-17T08:57:56;14.38;;;5.65;;
36691;SDS011;22678;52.052;4.242;2022-10-17T09:00:21;20.25;;;9.20;;
36691;SDS011;22678;52.052;4.242;2022-10-17T09:05:36;6.70;;;3.53;;
36691;SDS011;22678;52.052;4.242;2022-10-17T09:08:07;7.78;;;4.40;;
36691;SDS011;22678;52.052;4.242;2022-10-17T09:21:32;8.40;;;3.15;;
36691;SDS011;22678;52.052;4.242;2022-10-17T09:24:01;8.23;;;2.92;;
36691;SDS011;22678;52.052;4.242;2022-10-17T09:26:30;7.25;;;3.83;;
36691;SDS011;22678;52.052;4.242;2022-10-17T09:28:56;11.48;;;4.00;;
36691;SDS011;22678;52.052;4.242;2022-10-17T09:31:34;7.18;;;3.38;;
36691;SDS011;22678;52.052;4.242;2022-10-17T09:34:07;7.13;;;2.97;;
36691;SDS011;22678;52.052;4.242;2022-10-17T09:36:35;6.80;;;3.17;;
36691;SDS011;22678;52.052;4.242;2022-10-17T09:41:38;12.48;;;3.92;;
36691;SDS011;22678;52.052;4.242;2022-10-17T09:46:56;10.20;;;3.17;;
36691;SDS011;22678;52.052;4.242;2022-10-17T09:49:33;8.43;;;3.58;;
36691;SDS011;22678;52.052;4.242;2022-10-17T09:52:02;9.65;;;2.92;;
36691;SDS011;22678;52.052;4.242;2022-10-17T09:54:40;7.85;;;3.35;;
36691;SDS011;22678;52.052;4.242;2022-10-17T09:57:08;7.40;;;2.83;;
36691;SDS011;22678;52.052;4.242;2022-10-17T10:02:06;7.85;;;3.10;;
36691;SDS011;22678;52.052;4.242;2022-10-17T10:04:34;4.30;;;1.73;;
36691;SDS011;22678;52.052;4.242;2022-10-17T10:07:00;3.97;;;2.25;;
36691;SDS011;22678;52.052;4.242;2022-10-17T10:09:29;5.03;;;1.40;;
36691;SDS011;22678;52.052;4.242;2022-10-17T10:11:57;3.95;;;1.92;;
36691;SDS011;22678;52.052;4.242;2022-10-17T10:14:30;7.55;;;1.20;;
36691;SDS011;22678;52.052;4.242;2022-10-17T10:16:58;4.97;;;1.45;;
36691;SDS011;22678;52.052;4.242;2022-10-17T10:21:59;4.90;;;2.42;;
36691;SDS011;22678;52.052;4.242;2022-10-17T10:24:27;7.45;;;2.58;;
36691;SDS011;22678;52.052;4.242;2022-10-17T10:27:02;7.50;;;1.20;;
36691;SDS011;22678;52.052;4.242;2022-10-17T10:29:30;3.60;;;1.85;;
36691;SDS011;22678;52.052;4.242;2022-10-17T10:34:58;7.07;;;1.73;;
36691;SDS011;22678;52.052;4.242;2022-10-17T10:37:24;3.63;;;1.60;;
36691;SDS011;22678;52.052;4.242;2022-10-17T10:40:00;5.68;;;2.35;;
36691;SDS011;22678;52.052;4.242;2022-10-17T10:42:31;5.47;;;1.52;;
36691;SDS011;22678;52.052;4.242;2022-10-17T10:50:25;3.42;;;1.35;;
36691;SDS011;22678;52.052;4.242;2022-10-17T10:55:54;3.40;;;1.35;;
36691;SDS011;22678;52.052;4.242;2022-10-17T11:01:25;3.63;;;1.60;;
36691;SDS011;22678;52.052;4.242;2022-10-17T11:06:52;2.70;;;1.20;;
36691;SDS011;22678;52.052;4.242;2022-10-17T11:12:22;2.60;;;0.75;;
36691;SDS011;22678;52.052;4.242;2022-10-17T11:14:56;6.97;;;1.15;;
36691;SDS011;22678;52.052;4.242;2022-10-17T11:17:33;4.65;;;0.77;;
36691;SDS011;22678;52.052;4.242;2022-10-17T11:22:37;3.55;;;0.82;;
36691;SDS011;22678;52.052;4.242;2022-10-17T11:25:21;6.53;;;0.50;;
36691;SDS011;22678;52.052;4.242;2022-10-17T11:27:56;1.92;;;0.38;;
36691;SDS011;22678;52.052;4.242;2022-10-17T11:30:22;2.33;;;0.45;;
36691;SDS011;22678;52.052;4.242;2022-10-17T11:32:58;3.83;;;1.05;;
36691;SDS011;22678;52.052;4.242;2022-10-17T11:35:27;3.33;;;1.20;;
36691;SDS011;22678;52.052;4.242;2022-10-17T11:40:48;2.20;;;0.70;;
36691;SDS011;22678;52.052;4.242;2022-10-17T11:43:19;2.25;;;0.50;;
36691;SDS011;22678;52.052;4.242;2022-10-17T11:46:37;7.30;;;1.10;;
36691;SDS011;22678;52.052;4.242;2022-10-17T11:51:44;2.35;;;0.50;;
36691;SDS011;22678;52.052;4.242;2022-10-17T11:54:36;3.85;;;0.82;;
36691;SDS011;22678;52.052;4.242;2022-10-17T12:03:02;3.92;;;0.60;;
36691;SDS011;22678;52.052;4.242;2022-10-17T12:05:10;3.80;;;1.40;;
36691;SDS011;22678;52.052;4.242;2022-10-17T12:15:56;2.38;;;0.70;;
36691;SDS011;22678;52.052;4.242;2022-10-17T12:18:42;2.58;;;0.80;;
36691;SDS011;22678;52.052;4.242;2022-10-17T12:21:08;3.58;;;0.93;;
36691;SDS011;22678;52.052;4.242;2022-10-17T12:23:33;5.85;;;0.73;;
36691;SDS011;22678;52.052;4.242;2022-10-17T12:26:04;2.70;;;0.75;;
36691;SDS011;22678;52.052;4.242;2022-10-17T12:28:44;12.40;;;1.13;;
36691;SDS011;22678;52.052;4.242;2022-10-17T12:33:52;1.20;;;0.38;;
36691;SDS011;22678;52.052;4.242;2022-10-17T12:46:54;3.20;;;0.60;;
36691;SDS011;22678;52.052;4.242;2022-10-17T12:52:20;3.03;;;0.40;;
36691;SDS011;22678;52.052;4.242;2022-10-17T13:00:34;4.90;;;0.38;;
36691;SDS011;22678;52.052;4.242;2022-10-17T13:03:02;1.85;;;0.43;;
36691;SDS011;22678;52.052;4.242;2022-10-17T13:05:37;1.83;;;0.40;;
36691;SDS011;22678;52.052;4.242;2022-10-17T13:08:06;3.40;;;0.85;;
36691;SDS011;22678;52.052;4.242;2022-10-17T13:10:39;4.38;;;1.23;;
36691;SDS011;22678;52.052;4.242;2022-10-17T13:15:39;4.55;;;0.70;;
36691;SDS011;22678;52.052;4.242;2022-10-17T13:18:12;4.35;;;0.60;;
36691;SDS011;22678;52.052;4.242;2022-10-17T13:20:42;4.22;;;0.80;;
36691;SDS011;22678;52.052;4.242;2022-10-17T13:23:21;3.92;;;1.58;;
36691;SDS011;22678;52.052;4.242;2022-10-17T13:26:00;7.40;;;1.38;;
36691;SDS011;22678;52.052;4.242;2022-10-17T13:28:30;6.53;;;1.45;;
36691;SDS011;22678;52.052;4.242;2022-10-17T13:30:55;4.93;;;1.05;;
36691;SDS011;22678;52.052;4.242;2022-10-17T13:33:30;3.40;;;1.08;;
36691;SDS011;22678;52.052;4.242;2022-10-17T13:36:02;8.07;;;1.75;;
36691;SDS011;22678;52.052;4.242;2022-10-17T13:38:31;3.30;;;0.80;;
36691;SDS011;22678;52.052;4.242;2022-10-17T13:40:59;6.28;;;0.98;;
36691;SDS011;22678;52.052;4.242;2022-10-17T13:43:26;4.82;;;1.70;;
36691;SDS011;22678;52.052;4.242;2022-10-17T13:45:53;2.92;;;1.60;;
36691;SDS011;22678;52.052;4.242;2022-10-17T13:48:22;6.65;;;0.98;;
36691;SDS011;22678;52.052;4.242;2022-10-17T13:50:50;5.07;;;0.68;;
36691;SDS011;22678;52.052;4.242;2022-10-17T13:53:29;4.47;;;0.90;;
36691;SDS011;22678;52.052;4.242;2022-10-17T13:58:53;5.45;;;0.82;;
36691;SDS011;22678;52.052;4.242;2022-10-17T14:01:21;8.38;;;1.40;;
36691;SDS011;22678;52.052;4.242;2022-10-17T14:03:48;4.10;;;0.93;;
36691;SDS011;22678;52.052;4.242;2022-10-17T14:06:27;3.22;;;0.90;;
36691;SDS011;22678;52.052;4.242;2022-10-17T14:08:58;5.82;;;0.93;;
36691;SDS011;22678;52.052;4.242;2022-10-17T14:13:53;7.38;;;1.08;;
36691;SDS011;22678;52.052;4.242;2022-10-17T14:16:20;5.88;;;0.80;;
36691;SDS011;22678;52.052;4.242;2022-10-17T14:18:48;7.97;;;3.13;;
36691;SDS011;22678;52.052;4.242;2022-10-17T14:21:19;4.13;;;1.35;;
36691;SDS011;22678;52.052;4.242;2022-10-17T14:23:46;4.78;;;1.20;;
36691;SDS011;22678;52.052;4.242;2022-10-17T14:28:48;4.43;;;0.85;;
36691;SDS011;22678;52.052;4.242;2022-10-17T14:31:29;4.47;;;0.68;;
36691;SDS011;22678;52.052;4.242;2022-10-17T14:33:57;5.72;;;0.95;;
36691;SDS011;22678;52.052;4.242;2022-10-17T14:36:37;4.18;;;1.20;;
36691;SDS011;22678;52.052;4.242;2022-10-17T14:39:06;5.50;;;1.88;;
36691;SDS011;22678;52.052;4.242;2022-10-17T14:41:43;4.35;;;0.70;;
36691;SDS011;22678;52.052;4.242;2022-10-17T14:44:15;3.47;;;0.60;;
36691;SDS011;22678;52.052;4.242;2022-10-17T14:46:46;4.10;;;0.60;;
36691;SDS011;22678;52.052;4.242;2022-10-17T14:49:15;3.75;;;0.80;;
36691;SDS011;22678;52.052;4.242;2022-10-17T14:54:36;4.65;;;1.42;;
36691;SDS011;22678;52.052;4.242;2022-10-17T14:57:07;4.88;;;0.55;;
36691;SDS011;22678;52.052;4.242;2022-10-17T14:59:38;4.10;;;1.02;;
36691;SDS011;22678;52.052;4.242;2022-10-17T15:02:03;3.60;;;1.02;;
36691;SDS011;22678;52.052;4.242;2022-10-17T15:04:29;5.93;;;0.80;;
36691;SDS011;22678;52.052;4.242;2022-10-17T15:06:54;4.75;;;2.13;;
36691;SDS011;22678;52.052;4.242;2022-10-17T15:09:19;4.50;;;1.08;;
36691;SDS011;22678;52.052;4.242;2022-10-17T15:11:46;6.25;;;1.33;;
36691;SDS011;22678;52.052;4.242;2022-10-17T15:14:11;7.18;;;1.65;;
36691;SDS011;22678;52.052;4.242;2022-10-17T15:16:36;3.97;;;1.55;;
36691;SDS011;22678;52.052;4.242;2022-10-17T15:19:03;5.95;;;1.38;;
36691;SDS011;22678;52.052;4.242;2022-10-17T15:21:28;7.00;;;1.15;;
36691;SDS011;22678;52.052;4.242;2022-10-17T15:23:54;9.25;;;1.15;;
36691;SDS011;22678;52.052;4.242;2022-10-17T15:26:20;7.70;;;1.65;;
36691;SDS011;22678;52.052;4.242;2022-10-17T15:28:48;6.32;;;1.60;;
36691;SDS011;22678;52.052;4.242;2022-10-17T15:31:16;6.30;;;1.48;;
36691;SDS011;22678;52.052;4.242;2022-10-17T15:33:43;6.65;;;1.13;;
36691;SDS011;22678;52.052;4.242;2022-10-17T15:38:55;6.68;;;0.75;;
36691;SDS011;22678;52.052;4.242;2022-10-17T15:41:22;6.32;;;2.05;;
36691;SDS011;22678;52.052;4.242;2022-10-17T15:43:49;3.55;;;1.10;;
36691;SDS011;22678;52.052;4.242;2022-10-17T15:46:25;7.20;;;0.65;;
36691;SDS011;22678;52.052;4.242;2022-10-17T15:48:52;5.30;;;1.55;;
36691;SDS011;22678;52.052;4.242;2022-10-17T15:51:18;5.45;;;1.30;;
36691;SDS011;22678;52.052;4.242;2022-10-17T15:53:44;7.38;;;1.98;;
36691;SDS011;22678;52.052;4.242;2022-10-17T15:56:20;8.07;;;1.70;;
36691;SDS011;22678;52.052;4.242;2022-10-17T15:58:48;4.13;;;1.20;;
36691;SDS011;22678;52.052;4.242;2022-10-17T16:01:17;3.75;;;0.93;;
36691;SDS011;22678;52.052;4.242;2022-10-17T16:03:46;2.97;;;0.40;;
36691;SDS011;22678;52.052;4.242;2022-10-17T16:06:14;5.32;;;1.00;;
36691;SDS011;22678;52.052;4.242;2022-10-17T16:08:39;5.88;;;0.98;;
36691;SDS011;22678;52.052;4.242;2022-10-17T16:11:05;5.15;;;0.88;;
36691;SDS011;22678;52.052;4.242;2022-10-17T16:13:30;6.68;;;1.52;;
36691;SDS011;22678;52.052;4.242;2022-10-17T16:15:55;7.80;;;0.85;;
36691;SDS011;22678;52.052;4.242;2022-10-17T16:18:21;6.18;;;1.67;;
36691;SDS011;22678;52.052;4.242;2022-10-17T16:20:46;5.90;;;1.50;;
36691;SDS011;22678;52.052;4.242;2022-10-17T16:23:12;4.97;;;1.20;;
36691;SDS011;22678;52.052;4.242;2022-10-17T16:25:38;6.57;;;0.90;;
36691;SDS011;22678;52.052;4.242;2022-10-17T16:28:04;10.63;;;1.60;;
36691;SDS011;22678;52.052;4.242;2022-10-17T16:30:40;8.38;;;0.85;;
36691;SDS011;22678;52.052;4.242;2022-10-17T16:33:08;2.65;;;0.45;;
36691;SDS011;22678;52.052;4.242;2022-10-17T16:35:34;7.97;;;1.98;;
36691;SDS011;22678;52.052;4.242;2022-10-17T16:37:59;6.85;;;1.48;;
36691;SDS011;22678;52.052;4.242;2022-10-17T16:40:25;5.10;;;0.88;;
36691;SDS011;22678;52.052;4.242;2022-10-17T16:42:50;9.40;;;1.65;;
36691;SDS011;22678;52.052;4.242;2022-10-17T16:45:17;6.50;;;1.05;;
36691;SDS011;22678;52.052;4.242;2022-10-17T16:47:44;9.98;;;1.25;;
36691;SDS011;22678;52.052;4.242;2022-10-17T16:50:10;4.80;;;0.60;;
36691;SDS011;22678;52.052;4.242;2022-10-17T16:52:35;4.75;;;1.27;;
36691;SDS011;22678;52.052;4.242;2022-10-17T16:55:00;10.90;;;1.80;;
36691;SDS011;22678;52.052;4.242;2022-10-17T16:57:26;8.35;;;0.93;;
36691;SDS011;22678;52.052;4.242;2022-10-17T16:59:51;5.38;;;0.70;;
36691;SDS011;22678;52.052;4.242;2022-10-17T17:02:16;7.90;;;2.50;;
36691;SDS011;22678;52.052;4.242;2022-10-17T17:04:42;4.93;;;1.00;;
36691;SDS011;22678;52.052;4.242;2022-10-17T17:07:07;4.68;;;0.40;;
36691;SDS011;22678;52.052;4.242;2022-10-17T17:09:33;5.80;;;0.80;;
36691;SDS011;22678;52.052;4.242;2022-10-17T17:11:58;4.75;;;0.63;;
36691;SDS011;22678;52.052;4.242;2022-10-17T17:14:23;8.32;;;0.98;;
36691;SDS011;22678;52.052;4.242;2022-10-17T17:16:49;6.53;;;0.50;;